Time;durP1;ratioP1;P1;durP2;ratioP2;P2;SDS_P1;SDS_P2;PMS_P1;PMS_P2;Temp;Humidity;BMP_temperature;BMP_pressure;BME280_temperature;BME280_humidity;BME280_pressure;Samples;Min_cycle;Max_cycle;Signal;HPM_P1;HPM_P2
2021/03/26 00:00:54;;;;;;;23.90;13.97;;;;;;;10.77;48.13;98354.84;8317667;28;20687;-69
2021/03/26 00:04:56;;;;;;;21.60;14.00;;;;;;;10.75;48.40;98354.88;8315387;28;20189;-69
2021/03/26 00:08:58;;;;;;;16.83;13.37;;;;;;;10.70;48.42;98353.38;8314067;28;20219;-69
2021/03/26 00:13:01;;;;;;;19.63;13.93;;;;;;;10.72;48.47;98355.03;8319031;28;20239;-69
2021/03/26 00:17:04;;;;;;;20.27;14.43;;;;;;;10.75;48.32;98352.28;8314602;28;20200;-69
2021/03/26 00:21:06;;;;;;;22.07;13.50;;;;;;;10.56;48.40;98351.31;8314564;28;20212;-69
2021/03/26 00:25:10;;;;;;;24.77;14.03;;;;;;;10.54;48.74;98347.94;8330958;28;20286;-69
2021/03/26 00:29:13;;;;;;;18.27;14.03;;;;;;;10.60;49.06;98344.28;8331687;28;20238;-69
2021/03/26 00:33:15;;;;;;;19.90;13.90;;;;;;;10.56;49.19;98353.91;8330999;28;20203;-69
2021/03/26 00:37:17;;;;;;;19.47;13.30;;;;;;;10.54;49.38;98347.94;8330837;28;20200;-69
2021/03/26 00:41:19;;;;;;;22.33;14.63;;;;;;;10.59;49.35;98351.22;8330833;28;20533;-69
2021/03/26 00:45:26;;;;;;;20.17;14.33;;;;;;;10.57;49.47;98347.84;8330038;28;20625;-69
2021/03/26 00:49:28;;;;;;;20.03;14.00;;;;;;;10.59;49.29;98340.84;8330172;28;20639;-69
2021/03/26 00:53:33;;;;;;;20.60;14.93;;;;;;;10.60;49.29;98344.28;8330841;28;20215;-69
2021/03/26 00:57:34;;;;;;;20.93;15.33;;;;;;;10.48;49.55;98338.66;8330662;28;20211;-69
2021/03/26 01:01:37;;;;;;;19.40;15.03;;;;;;;10.48;49.54;98343.84;8329970;28;20682;-69
2021/03/26 01:05:42;;;;;;;22.93;15.83;;;;;;;10.45;49.30;98338.81;8330369;28;20262;-69
2021/03/26 01:09:44;;;;;;;22.07;15.17;;;;;;;10.39;49.68;98335.59;8330054;28;20250;-69
2021/03/26 01:13:47;;;;;;;18.73;15.40;;;;;;;10.29;49.77;98340.22;8330460;28;20200;-69
2021/03/26 01:17:50;;;;;;;22.70;15.90;;;;;;;10.29;49.55;98338.47;8330048;28;20209;-69
2021/03/26 01:21:53;;;;;;;18.47;13.93;;;;;;;10.16;49.38;98342.41;8330261;28;20686;-69
2021/03/26 01:25:56;;;;;;;17.23;13.27;;;;;;;10.13;48.89;98350.31;8330164;28;20197;-69
2021/03/26 01:29:57;;;;;;;17.60;13.10;;;;;;;10.08;49.17;98350.47;8330514;28;20235;-69
2021/03/26 01:34:01;;;;;;;22.70;15.43;;;;;;;10.05;49.68;98352.31;8330340;28;20196;-69
2021/03/26 01:38:03;;;;;;;21.33;15.43;;;;;;;9.98;49.87;98357.72;8329699;28;20295;-69
2021/03/26 01:42:20;;;;;;;25.07;16.13;;;;;;;9.85;50.17;98350.47;8330290;28;20227;-69
2021/03/26 01:46:23;;;;;;;19.93;14.63;;;;;;;9.87;50.03;98346.06;8330260;28;20221;-68
2021/03/26 01:50:29;;;;;;;21.17;14.33;;;;;;;9.90;49.66;98346.81;8331451;28;20205;-69
2021/03/26 01:54:31;;;;;;;23.10;15.87;;;;;;;9.86;50.10;98347.81;8336316;28;20188;-69
2021/03/26 01:58:35;;;;;;;21.07;15.00;;;;;;;9.71;50.45;98346.63;8335373;28;20200;-69
2021/03/26 02:02:38;;;;;;;22.60;16.10;;;;;;;9.66;50.36;98347.66;8335853;28;20220;-69
2021/03/26 02:06:54;;;;;;;19.07;14.47;;;;;;;9.59;50.80;98347.03;8335942;28;20292;-69
2021/03/26 02:10:57;;;;;;;22.50;15.90;;;;;;;9.54;50.68;98344.59;8336122;28;20196;-69
2021/03/26 02:15:02;;;;;;;20.80;14.90;;;;;;;9.62;50.52;98346.09;8335736;28;20196;-69
2021/03/26 02:19:07;;;;;;;18.73;14.60;;;;;;;9.64;50.49;98337.38;8335913;28;20219;-69
2021/03/26 02:23:10;;;;;;;18.93;15.03;;;;;;;9.61;50.75;98339.22;8335329;28;20197;-69
2021/03/26 02:27:15;;;;;;;19.73;15.40;;;;;;;9.61;50.87;98352.16;8335601;28;20573;-69
2021/03/26 02:31:18;;;;;;;21.83;15.40;;;;;;;9.57;50.55;98352.25;8335445;28;20522;-69
2021/03/26 02:35:26;;;;;;;19.90;14.30;;;;;;;9.45;50.88;98349.25;8335830;28;20235;-68
2021/03/26 02:39:33;;;;;;;22.30;14.97;;;;;;;9.26;51.46;98354.19;8335138;28;20278;-68
2021/03/26 02:43:39;;;;;;;19.10;14.67;;;;;;;9.22;51.49;98350.84;8334223;28;20192;-69
2021/03/26 02:47:45;;;;;;;20.30;15.53;;;;;;;9.29;51.54;98351.47;8335009;28;20193;-69
2021/03/26 02:51:50;;;;;;;19.77;15.17;;;;;;;9.29;51.46;98352.34;8334276;28;20263;-68
2021/03/26 02:55:57;;;;;;;20.23;14.50;;;;;;;9.31;51.72;98354.84;8334311;28;20291;-68
2021/03/26 03:00:01;;;;;;;22.13;15.20;;;;;;;9.34;51.64;98357.34;8334709;28;20216;-68
2021/03/26 03:04:07;;;;;;;22.30;15.63;;;;;;;9.29;51.46;98365.25;8333140;28;20204;-69
2021/03/26 03:08:12;;;;;;;22.00;15.57;;;;;;;9.23;51.45;98357.69;8333783;28;20216;-69
2021/03/26 03:12:19;;;;;;;24.40;16.30;;;;;;;9.14;51.65;98361.44;8333501;28;20215;-68
2021/03/26 03:16:24;;;;;;;18.90;15.50;;;;;;;9.11;51.84;98358.94;8332219;28;20196;-69
2021/03/26 03:20:32;;;;;;;24.07;16.90;;;;;;;9.07;52.01;98353.94;8333158;28;20208;-68
2021/03/26 03:24:37;;;;;;;20.27;15.40;;;;;;;9.07;51.78;98353.94;8334288;28;20185;-69
2021/03/26 03:28:48;;;;;;;21.60;15.80;;;;;;;9.07;51.35;98354.78;8333618;28;20263;-69
2021/03/26 03:33:14;;;;;;;20.80;15.80;;;;;;;9.15;51.26;98347.59;8333578;28;20275;-68
2021/03/26 03:37:21;;;;;;;20.33;15.53;;;;;;;9.08;51.79;98348.72;8326888;28;20204;-69
2021/03/26 03:41:29;;;;;;;21.33;14.87;;;;;;;9.25;51.75;98360.22;8313068;28;20208;-69
2021/03/26 03:45:42;;;;;;;20.03;14.70;;;;;;;9.32;51.74;98353.97;8327739;28;20522;-69
2021/03/26 03:49:50;;;;;;;22.80;15.00;;;;;;;9.26;51.87;98369.69;8300373;28;20197;-69
2021/03/26 03:53:56;;;;;;;17.57;14.40;;;;;;;9.26;51.88;98367.94;8303036;28;20176;-69
2021/03/26 03:58:04;;;;;;;17.20;14.57;;;;;;;9.04;52.21;98364.34;8322897;28;20624;-69
2021/03/26 04:02:16;;;;;;;18.87;13.30;;;;;;;9.23;51.54;98359.44;8299531;28;20216;-69
2021/03/26 04:06:23;;;;;;;20.57;13.57;;;;;;;9.10;52.01;98352.09;8299809;28;20185;-69
2021/03/26 04:10:26;;;;;;;16.50;13.63;;;;;;;8.99;52.33;98359.34;8299251;28;20193;-68
2021/03/26 04:14:30;;;;;;;18.10;13.37;;;;;;;9.14;52.08;98363.19;8330829;28;20313;-69
2021/03/26 04:18:37;;;;;;;18.20;13.27;;;;;;;9.18;52.18;98360.44;8331756;28;20588;-69
2021/03/26 04:22:42;;;;;;;16.23;13.23;;;;;;;9.13;52.64;98357.16;8330993;28;20217;-69
2021/03/26 04:26:47;;;;;;;16.20;13.20;;;;;;;9.22;52.66;98347.44;8332303;28;20559;-69
2021/03/26 04:30:53;;;;;;;17.67;13.50;;;;;;;9.31;52.40;98357.44;8331169;28;20200;-69
2021/03/26 04:34:56;;;;;;;17.93;13.30;;;;;;;9.17;52.02;98355.31;8332281;28;20488;-69
2021/03/26 04:39:01;;;;;;;19.87;14.07;;;;;;;9.14;51.75;98345.94;8331136;28;20655;-69
2021/03/26 04:43:12;;;;;;;21.70;14.20;;;;;;;9.03;51.93;98352.34;8331682;28;20230;-68
2021/03/26 04:47:20;;;;;;;16.70;13.20;;;;;;;8.97;52.02;98361.97;8330478;28;20200;-69
2021/03/26 04:51:26;;;;;;;18.13;12.70;;;;;;;9.03;51.60;98365.25;8331210;28;20658;-69
2021/03/26 04:55:31;;;;;;;18.63;13.17;;;;;;;8.92;51.95;98365.59;8331157;28;20580;-69
2021/03/26 04:59:38;;;;;;;19.47;13.80;;;;;;;8.76;52.38;98358.31;8330923;28;20271;-69
2021/03/26 05:03:43;;;;;;;15.93;12.20;;;;;;;8.91;52.50;98361.31;8330843;28;20284;-69
2021/03/26 05:07:48;;;;;;;18.47;12.90;;;;;;;8.82;52.33;98364.19;8328299;28;20548;-69
2021/03/26 05:11:52;;;;;;;19.27;13.70;;;;;;;8.74;52.25;98362.69;8327114;28;20181;-69
2021/03/26 05:16:00;;;;;;;17.47;13.70;;;;;;;8.70;52.05;98358.50;8295391;28;20204;-69
2021/03/26 05:20:07;;;;;;;20.07;13.90;;;;;;;8.68;52.54;98349.97;8295212;28;20210;-69
2021/03/26 05:24:14;;;;;;;19.60;14.43;;;;;;;8.58;53.18;98353.69;8295665;28;20184;-69
2021/03/26 05:28:18;;;;;;;21.57;14.90;;;;;;;8.70;53.25;98360.22;8300838;28;20229;-69
2021/03/26 05:32:26;;;;;;;19.63;13.20;;;;;;;8.83;52.65;98361.53;8304796;28;20564;-69
2021/03/26 05:36:34;;;;;;;17.30;14.10;;;;;;;8.75;52.49;98364.34;8304435;28;20614;-69
2021/03/26 05:40:50;;;;;;;18.63;13.77;;;;;;;8.80;51.95;98359.91;8323975;28;20224;-69
2021/03/26 05:45:00;;;;;;;17.90;14.03;;;;;;;8.93;51.94;98355.22;8336731;28;20185;-69
2021/03/26 05:49:06;;;;;;;19.03;14.10;;;;;;;8.98;51.75;98361.06;8337104;28;20185;-69
2021/03/26 05:53:17;;;;;;;20.03;13.27;;;;;;;9.24;51.32;98374.06;8337484;28;20184;-69
2021/03/26 05:57:24;;;;;;;20.50;15.37;;;;;;;9.72;50.10;98373.31;8336956;28;20682;-69
2021/03/26 06:01:46;;;;;;;21.03;15.63;;;;;;;9.71;50.08;98369.03;8336229;28;20208;-69
2021/03/26 06:06:27;;;;;;;23.03;15.90;;;;;;;9.86;49.82;98378.88;8335549;28;20189;-68
2021/03/26 06:11:01;;;;;;;24.70;15.40;;;;;;;9.89;49.79;98375.31;8305874;28;20274;-69
2021/03/26 06:15:33;;;;;;;25.77;16.57;;;;;;;9.75;50.59;98379.22;8325791;28;20197;-68
2021/03/26 06:20:00;;;;;;;21.53;15.33;;;;;;;9.71;50.74;98393.16;8315772;28;20640;-68
2021/03/26 06:24:40;;;;;;;25.73;16.70;;;;;;;9.98;50.00;98381.00;8288176;28;20296;-69
2021/03/26 06:28:48;;;;;;;25.10;15.97;;;;;;;10.20;49.46;98377.66;8319562;28;20225;-69
2021/03/26 06:33:23;;;;;;;19.07;15.43;;;;;;;10.11;49.68;98372.78;8317734;28;20193;-69
2021/03/26 06:37:38;;;;;;;21.43;15.90;;;;;;;10.02;50.17;98371.41;8320052;28;20209;-69
2021/03/26 06:41:53;;;;;;;27.53;15.70;;;;;;;9.85;50.58;98363.38;8326559;28;20257;-69
2021/03/26 06:46:07;;;;;;;24.13;17.53;;;;;;;9.99;50.74;98374.09;8335337;28;20628;-69
2021/03/26 06:50:17;;;;;;;27.97;19.20;;;;;;;10.56;50.15;98370.28;8327242;28;20200;-69
2021/03/26 06:54:31;;;;;;;24.23;18.23;;;;;;;11.21;48.23;98370.34;8332012;28;20236;-69
2021/03/26 06:58:52;;;;;;;28.53;16.47;;;;;;;11.98;46.37;98367.19;8314013;28;20631;-69
2021/03/26 07:03:11;;;;;;;21.73;14.50;;;;;;;12.28;45.93;98377.97;8328614;28;20241;-69
2021/03/26 07:07:34;;;;;;;17.90;14.23;;;;;;;11.76;46.77;98369.81;8300943;28;20281;-69
2021/03/26 07:12:09;;;;;;;25.00;15.67;;;;;;;12.25;46.05;98366.88;8306824;28;20200;-69
2021/03/26 07:16:40;;;;;;;25.57;14.77;;;;;;;12.71;45.00;98381.19;8329954;28;20228;-69
2021/03/26 07:21:10;;;;;;;21.93;15.00;;;;;;;12.44;45.30;98370.31;8332158;28;20259;-69
2021/03/26 07:25:20;;;;;;;24.20;15.17;;;;;;;11.74;47.82;98371.63;8318745;28;20212;-69
2021/03/26 07:29:39;;;;;;;20.93;13.83;;;;;;;11.76;47.93;98371.59;8333137;28;20239;-69
2021/03/26 07:33:43;;;;;;;23.60;14.90;;;;;;;11.34;48.95;98381.09;8332901;28;20188;-69
2021/03/26 07:37:53;;;;;;;21.07;15.03;;;;;;;11.43;48.80;98383.31;8332261;28;20696;-69
2021/03/26 07:42:31;;;;;;;18.90;13.90;;;;;;;11.69;48.49;98384.81;8301123;28;20213;-69
2021/03/26 07:46:56;;;;;;;21.87;14.20;;;;;;;12.12;47.54;98389.94;8296162;28;20296;-69
2021/03/26 07:51:01;;;;;;;22.97;14.80;;;;;;;12.24;47.50;98383.34;8309255;28;20246;-69
2021/03/26 07:55:19;;;;;;;21.60;14.03;;;;;;;12.78;46.50;98386.13;8311052;28;20209;-69
2021/03/26 07:59:34;;;;;;;20.53;14.90;;;;;;;13.30;45.98;98394.06;8329502;28;20507;-69
2021/03/26 08:04:10;;;;;;;21.63;13.80;;;;;;;12.50;46.28;98392.59;8316264;28;20201;-69
2021/03/26 08:08:35;;;;;;;18.17;13.60;;;;;;;13.92;43.74;98399.66;8311478;28;20582;-69
2021/03/26 08:12:46;;;;;;;23.20;13.87;;;;;;;14.38;42.71;98393.84;8306987;28;20220;-69
2021/03/26 08:17:08;;;;;;;21.53;14.13;;;;;;;14.43;42.32;98387.47;8300990;28;20209;-69
2021/03/26 08:21:17;;;;;;;19.50;14.73;;;;;;;14.78;42.03;98391.72;8315615;28;20675;-69
2021/03/26 08:25:29;;;;;;;18.00;14.17;;;;;;;15.20;41.00;98395.47;8305990;28;20249;-69
2021/03/26 08:29:35;;;;;;;20.40;13.63;;;;;;;15.76;39.84;98401.84;8331769;28;20694;-69
2021/03/26 08:34:04;;;;;;;18.67;12.40;;;;;;;16.34;38.89;98391.47;8324669;28;20192;-69
2021/03/26 08:38:19;;;;;;;18.67;12.07;;;;;;;16.86;37.89;98388.22;8297568;28;20312;-69
2021/03/26 08:42:23;;;;;;;17.87;12.40;;;;;;;16.97;37.60;98390.19;8297851;28;20628;-70
2021/03/26 08:46:28;;;;;;;18.70;11.77;;;;;;;17.29;37.79;98398.56;8297210;28;20213;-69
2021/03/26 08:50:39;;;;;;;18.87;11.83;;;;;;;17.90;36.63;98395.50;8302554;28;20211;-69
2021/03/26 08:54:55;;;;;;;19.30;12.80;;;;;;;17.32;37.15;98406.22;8330924;28;20184;-69
2021/03/26 08:59:08;;;;;;;17.67;13.50;;;;;;;17.52;36.70;98399.69;8316256;28;20459;-70
2021/03/26 09:03:29;;;;;;;16.60;8.17;;;;;;;19.16;38.24;98405.06;8319847;28;20239;-74
2021/03/26 09:07:48;;;;;;;21.83;10.03;;;;;;;19.51;35.55;98393.75;8297864;28;20185;-75
2021/03/26 09:12:18;;;;;;;22.60;9.43;;;;;;;20.26;34.96;98395.16;8299780;28;20209;-74
2021/03/26 09:16:22;;;;;;;15.90;10.97;;;;;;;20.14;33.10;98389.03;8310600;28;20192;-74
2021/03/26 09:20:31;;;;;;;20.50;12.10;;;;;;;20.15;32.34;98390.72;8332091;28;20281;-74
2021/03/26 09:24:45;;;;;;;13.80;10.03;;;;;;;19.63;32.19;98382.34;8331688;28;20196;-75
2021/03/26 09:28:53;;;;;;;13.17;10.00;;;;;;;19.64;32.52;98383.19;8333151;28;20687;-74
2021/03/26 09:32:57;;;;;;;15.13;10.03;;;;;;;20.14;31.90;98380.31;8332567;28;20204;-73
2021/03/26 09:37:14;;;;;;;15.87;11.03;;;;;;;19.69;32.14;98376.63;8330086;28;20192;-75
2021/03/26 09:41:21;;;;;;;15.07;10.87;;;;;;;19.52;33.26;98374.44;8330874;28;20231;-74
2021/03/26 09:45:28;;;;;;;15.10;10.30;;;;;;;20.11;32.38;98371.72;8330468;28;20671;-74
2021/03/26 09:49:32;;;;;;;13.50;8.80;;;;;;;20.41;32.77;98377.31;8330699;28;20189;-75
2021/03/26 09:53:36;;;;;;;15.87;9.20;;;;;;;20.97;32.09;98366.75;8330660;28;20358;-75
2021/03/26 09:57:45;;;;;;;13.57;8.20;;;;;;;20.59;32.65;98364.53;8330563;28;20212;-75
2021/03/26 10:01:52;;;;;;;13.97;8.40;;;;;;;20.49;32.19;98360.00;8329669;28;20275;-75
2021/03/26 10:05:59;;;;;;;15.90;10.33;;;;;;;20.40;32.38;98355.44;8328771;28;20520;-75
2021/03/26 10:14:35;;;;;;;13.20;8.67;;;;;;;20.52;32.93;98343.13;8325432;28;20251;-68
2021/03/26 10:18:40;;;;;;;12.37;8.83;;;;;;;20.53;32.25;98334.28;8335795;28;20196;-68
2021/03/26 10:22:50;;;;;;;13.60;9.23;;;;;;;20.63;31.83;98329.16;8336209;28;20530;-68
2021/03/26 10:26:53;;;;;;;15.07;10.20;;;;;;;20.58;31.77;98331.28;8326931;28;20569;-69
2021/03/26 10:31:03;;;;;;;16.73;10.37;;;;;;;19.99;31.83;98320.09;8310853;28;20204;-69
2021/03/26 10:35:17;;;;;;;11.77;8.13;;;;;;;20.80;31.51;98318.09;8319503;28;20625;-69
2021/03/26 10:39:23;;;;;;;13.97;8.33;;;;;;;21.07;31.27;98312.38;8316193;28;20297;-69
2021/03/26 10:43:30;;;;;;;14.27;7.83;;;;;;;21.01;31.08;98304.16;8323455;28;20699;-69
2021/03/26 10:47:35;;;;;;;11.93;8.60;;;;;;;21.56;29.81;98302.25;8322885;28;20201;-70
2021/03/26 10:51:46;;;;;;;13.53;8.23;;;;;;;20.92;30.44;98294.38;8321482;28;20203;-69
2021/03/26 10:55:51;;;;;;;12.80;7.30;;;;;;;20.63;30.21;98292.31;8314452;28;20189;-70
2021/03/26 11:00:03;;;;;;;12.23;9.20;;;;;;;21.29;30.16;98284.28;8309707;28;20204;-70
2021/03/26 11:04:17;;;;;;;12.63;7.70;;;;;;;21.09;30.05;98284.16;8312198;28;20189;-70
2021/03/26 11:08:40;;;;;;;16.73;7.70;;;;;;;21.19;30.95;98272.84;8325658;28;20512;-70
2021/03/26 11:12:45;;;;;;;12.10;8.13;;;;;;;20.45;31.77;98261.25;8315019;28;20189;-70
2021/03/26 11:16:50;;;;;;;14.47;8.23;;;;;;;20.22;32.05;98260.44;8317784;28;20205;-69
2021/03/26 11:20:58;;;;;;;12.30;7.27;;;;;;;20.11;33.23;98250.78;8331727;28;20708;-69
2021/03/26 11:25:06;;;;;;;13.27;8.10;;;;;;;20.64;32.07;98249.28;8315252;28;20197;-67
2021/03/26 11:29:18;;;;;;;14.43;10.43;;;;;;;19.85;32.36;98239.66;8331566;28;20224;-67
2021/03/26 11:33:39;;;;;;;14.40;8.90;;;;;;;20.19;32.61;98241.44;8321520;28;20185;-68
2021/03/26 11:37:45;;;;;;;20.47;10.13;;;;;;;20.63;31.65;98231.81;8300306;28;20225;-67
2021/03/26 11:41:55;;;;;;;10.37;7.33;;;;;;;20.70;32.87;98225.09;8319957;28;20209;-67
2021/03/26 11:46:01;;;;;;;13.30;8.50;;;;;;;21.58;30.00;98215.97;8316341;28;20190;-68
2021/03/26 11:50:15;;;;;;;13.10;7.23;;;;;;;20.64;31.83;98209.81;8331330;28;20204;-68
2021/03/26 11:54:27;;;;;;;13.63;6.90;;;;;;;20.34;33.25;98199.94;8323154;28;20262;-67
2021/03/26 11:58:34;;;;;;;16.10;6.50;;;;;;;19.99;34.01;98198.31;8332683;28;20192;-67
2021/03/26 12:02:44;;;;;;;15.40;9.07;;;;;;;19.93;32.25;98191.75;8317711;28;20200;-67
2021/03/26 12:06:53;;;;;;;12.87;8.03;;;;;;;20.16;33.56;98184.66;8297149;28;20189;-67
2021/03/26 12:10:58;;;;;;;12.83;7.40;;;;;;;20.07;33.68;98173.13;8297981;28;20579;-66
2021/03/26 12:15:07;;;;;;;12.00;9.63;;;;;;;21.25;30.92;98169.63;8301166;28;20181;-66
2021/03/26 12:19:16;;;;;;;14.90;9.50;;;;;;;20.43;31.98;98163.22;8312735;28;20517;-67
2021/03/26 12:23:40;;;;;;;16.05;11.35;;;;;;;20.96;30.89;98151.00;8331070;28;20439;-68
2021/03/26 12:27:45;;;;;;;14.83;10.53;;;;;;;19.96;32.32;98149.47;8313675;28;20225;-67
2021/03/26 12:31:54;;;;;;;18.00;11.07;;;;;;;20.29;32.75;98150.34;8316524;28;20190;-67
2021/03/26 12:35:58;;;;;;;13.80;9.87;;;;;;;19.85;32.63;98136.34;8309946;28;20331;-67
2021/03/26 12:40:27;;;;;;;16.33;11.23;;;;;;;19.29;32.71;98131.97;8331121;28;20258;-68
2021/03/26 12:44:34;;;;;;;17.40;11.97;;;;;;;20.00;32.53;98132.50;8319079;28;20212;-67
2021/03/26 12:48:39;;;;;;;12.87;10.10;;;;;;;20.48;31.66;98126.81;8315081;28;20210;-67
2021/03/26 12:52:47;;;;;;;14.40;10.80;;;;;;;20.23;31.47;98114.03;8312778;28;20188;-67
2021/03/26 12:56:53;;;;;;;12.17;10.57;;;;;;;20.16;32.00;98107.59;8325884;28;20224;-67
2021/03/26 13:01:03;;;;;;;15.30;11.10;;;;;;;20.72;30.77;98096.84;8324542;28;20220;-68
2021/03/26 13:05:09;;;;;;;10.97;9.63;;;;;;;20.38;31.15;98088.28;8331339;28;20196;-68
2021/03/26 13:09:27;;;;;;;15.50;10.33;;;;;;;21.36;29.88;98076.50;8331107;28;20197;-68
2021/03/26 13:13:36;;;;;;;10.83;8.30;;;;;;;21.86;27.71;98076.53;8331818;28;20502;-71
2021/03/26 13:17:38;;;;;;;12.43;8.50;;;;;;;20.97;28.36;98061.38;8330237;28;20624;-72
2021/03/26 13:21:45;;;;;;;16.43;7.97;;;;;;;20.08;28.01;98068.78;8327637;28;20220;-71
2021/03/26 13:25:51;;;;;;;14.43;7.57;;;;;;;20.70;27.45;98056.69;8330837;28;20185;-71
2021/03/26 13:29:56;;;;;;;9.17;7.10;;;;;;;20.80;27.25;98040.94;8330280;28;20231;-71
2021/03/26 13:34:00;;;;;;;10.23;7.23;;;;;;;20.68;27.02;98040.19;8298201;28;20189;-72
2021/03/26 13:38:05;;;;;;;21.47;7.50;;;;;;;20.87;24.96;98039.47;8309889;28;20264;-72
2021/03/26 13:42:15;;;;;;;14.87;7.93;;;;;;;20.96;25.06;98035.19;8315813;28;20498;-73
2021/03/26 13:46:21;;;;;;;11.30;7.13;;;;;;;20.93;24.68;98025.75;8325604;28;20197;-72
2021/03/26 13:50:28;;;;;;;9.70;7.67;;;;;;;21.19;25.21;98026.16;8322487;28;20202;-71
2021/03/26 13:54:35;;;;;;;11.47;7.27;;;;;;;20.69;25.80;98019.00;8318780;28;20200;-72
2021/03/26 13:58:44;;;;;;;15.27;8.00;;;;;;;20.43;26.16;98010.66;8330592;28;20628;-72
2021/03/26 14:02:56;;;;;;;9.87;7.03;;;;;;;20.98;25.41;98009.56;8323558;28;20217;-71
2021/03/26 14:07:01;;;;;;;12.20;8.27;;;;;;;20.15;26.36;97996.34;8314496;28;20211;-71
2021/03/26 14:11:27;;;;;;;12.03;8.27;;;;;;;19.96;26.56;97989.16;8323093;28;20192;-67
2021/03/26 14:15:30;;;;;;;9.50;7.83;;;;;;;20.29;26.56;97987.31;8307057;28;20185;-67
2021/03/26 14:19:37;;;;;;;11.23;8.03;;;;;;;19.81;27.07;97977.28;8321357;28;20659;-67
2021/03/26 14:23:39;;;;;;;13.73;8.00;;;;;;;20.39;26.61;97971.56;8325231;28;20223;-67
2021/03/26 14:28:03;;;;;;;12.80;8.37;;;;;;;20.41;26.14;97978.41;8316206;28;20229;-67
2021/03/26 14:32:08;;;;;;;12.07;8.40;;;;;;;19.51;26.23;97974.38;8329670;28;20200;-68
2021/03/26 14:36:16;;;;;;;11.73;8.37;;;;;;;19.55;26.99;97974.94;8330672;28;20193;-68
2021/03/26 14:40:21;;;;;;;13.27;8.20;;;;;;;19.46;27.61;97975.69;8330436;28;20217;-68
2021/03/26 14:44:26;;;;;;;13.57;8.17;;;;;;;19.63;27.67;97967.28;8333659;28;20595;-68
2021/03/26 14:48:35;;;;;;;13.37;8.27;;;;;;;19.20;27.52;97970.72;8334258;28;20223;-67
2021/03/26 14:52:47;;;;;;;13.53;7.50;;;;;;;18.90;27.76;97955.63;8331089;28;20576;-68
2021/03/26 14:56:53;;;;;;;10.97;7.00;;;;;;;18.91;28.30;97966.00;8331658;28;20386;-68
2021/03/26 15:01:05;;;;;;;9.83;6.93;;;;;;;18.93;28.71;97958.00;8332974;28;20278;-68
2021/03/26 15:05:09;;;;;;;10.13;7.00;;;;;;;19.21;27.36;97953.19;8332003;28;20542;-68
2021/03/26 15:09:23;;;;;;;12.23;6.87;;;;;;;19.06;27.79;97948.22;8326881;28;20211;-68
2021/03/26 15:13:28;;;;;;;12.70;7.63;;;;;;;18.77;28.52;97945.22;8327057;28;20596;-68
2021/03/26 15:17:36;;;;;;;12.37;8.13;;;;;;;18.52;28.29;97946.28;8331275;28;20284;-67
2021/03/26 15:21:51;;;;;;;11.13;7.30;;;;;;;18.51;28.84;97939.41;8331227;28;20235;-68
2021/03/26 15:25:58;;;;;;;12.13;7.87;;;;;;;18.29;28.78;97937.56;8327146;28;20197;-68
2021/03/26 15:30:10;;;;;;;8.80;7.37;;;;;;;18.60;28.73;97941.31;8330592;28;20224;-68
2021/03/26 15:34:21;;;;;;;10.30;7.03;;;;;;;18.48;29.24;97929.13;8330295;28;20260;-68
2021/03/26 15:38:31;;;;;;;10.03;6.63;;;;;;;18.37;29.27;97929.94;8319146;28;20251;-66
2021/03/26 15:42:38;;;;;;;12.27;7.07;;;;;;;18.46;28.33;97928.41;8321910;28;20221;-66
2021/03/26 15:46:43;;;;;;;11.40;7.57;;;;;;;18.39;28.37;97919.34;8318617;28;20196;-67
2021/03/26 15:50:49;;;;;;;10.03;7.33;;;;;;;18.34;28.49;97914.47;8327411;28;20197;-67
2021/03/26 15:55:29;;;;;;;12.73;6.70;;;;;;;18.70;28.39;97920.44;8321340;28;20193;-69
2021/03/26 15:59:34;;;;;;;12.80;7.43;;;;;;;18.92;28.13;97911.72;8300533;28;20197;-67
2021/03/26 16:03:52;;;;;;;12.30;7.63;;;;;;;18.86;27.55;97912.22;8331524;28;20553;-67
2021/03/26 16:08:43;;;;;;;12.90;7.60;;;;;;;18.75;28.12;97911.25;8330057;28;20247;-67
2021/03/26 16:13:27;;;;;;;14.47;7.90;;;;;;;18.59;27.97;97896.84;8308469;28;20318;-67
2021/03/26 16:17:52;;;;;;;9.47;7.23;;;;;;;18.68;27.94;97901.38;8324046;28;20211;-67
2021/03/26 16:22:07;;;;;;;11.83;9.03;;;;;;;18.68;27.85;97896.13;8327742;28;20464;-67
2021/03/26 16:26:16;;;;;;;11.03;8.30;;;;;;;18.25;27.79;97888.97;8328989;28;20268;-68
2021/03/26 16:30:26;;;;;;;11.47;8.10;;;;;;;18.23;28.17;97885.63;8329607;28;20263;-67
2021/03/26 16:34:38;;;;;;;13.27;8.80;;;;;;;18.27;28.59;97877.41;8329085;28;20200;-66
2021/03/26 16:38:47;;;;;;;10.97;7.63;;;;;;;18.03;29.16;97876.66;8328888;28;20232;-67
2021/03/26 16:43:12;;;;;;;10.77;8.47;;;;;;;18.06;29.58;97885.13;8329137;28;20208;-67
2021/03/26 16:47:34;;;;;;;12.03;8.00;;;;;;;17.78;29.17;97878.47;8325781;28;20200;-66
2021/03/26 16:52:09;;;;;;;15.90;8.33;;;;;;;17.56;29.59;97871.41;8329732;28;20200;-65
2021/03/26 16:56:34;;;;;;;12.40;7.50;;;;;;;17.63;29.80;97870.00;8329895;28;20280;-66
2021/03/26 17:01:14;;;;;;;11.10;7.20;;;;;;;17.56;30.45;97866.19;8320889;28;20197;-66
2021/03/26 17:05:49;;;;;;;10.30;7.37;;;;;;;17.48;30.10;97865.91;8316409;28;20672;-67
2021/03/26 17:10:26;;;;;;;10.37;6.90;;;;;;;17.46;31.11;97860.78;8323036;28;20200;-67
2021/03/26 17:14:46;;;;;;;11.10;7.10;;;;;;;17.42;30.77;97861.97;8315900;28;20196;-66
2021/03/26 17:19:24;;;;;;;13.37;7.90;;;;;;;17.35;31.83;97853.72;8311231;28;20185;-67
2021/03/26 17:23:58;;;;;;;11.07;8.00;;;;;;;17.30;32.09;97853.22;8309648;28;20219;-66
2021/03/26 17:28:32;;;;;;;12.90;8.37;;;;;;;17.17;32.29;97858.53;8318545;28;20227;-66
2021/03/26 17:33:10;;;;;;;13.32;8.80;;;;;;;17.58;32.27;97852.00;8321717;28;20424;-67
2021/03/26 17:37:21;;;;;;;13.57;8.63;;;;;;;17.15;32.35;97854.34;8308705;28;20197;-67
2021/03/26 17:41:36;;;;;;;12.37;8.33;;;;;;;17.02;32.71;97854.41;8304789;28;20209;-67
2021/03/26 17:45:44;;;;;;;13.87;8.53;;;;;;;16.90;32.95;97853.50;8304586;28;20189;-69
2021/03/26 17:50:05;;;;;;;17.40;10.00;;;;;;;16.85;33.35;97857.38;8326781;28;20287;-67
2021/03/26 17:54:22;;;;;;;22.17;14.00;;;;;;;16.78;33.89;97851.75;8325575;28;20208;-66
2021/03/26 17:58:56;;;;;;;25.47;13.77;;;;;;;16.73;35.19;97853.84;8334716;28;20990;-66
2021/03/26 18:03:49;;;;;;;33.47;12.90;;;;;;;16.55;35.44;97848.97;8310927;28;20271;-67
2021/03/26 18:08:03;;;;;;;20.80;10.87;;;;;;;16.51;35.39;97850.16;8303287;28;20511;-67
2021/03/26 18:12:12;;;;;;;26.87;12.20;;;;;;;16.35;36.12;97852.16;8304402;28;20185;-66
2021/03/26 18:16:19;;;;;;;20.80;12.10;;;;;;;16.30;36.09;97859.50;8304360;28;20185;-66
2021/03/26 18:20:57;;;;;;;28.73;24.87;;;;;;;16.22;36.62;97862.63;8324409;28;20219;-67
2021/03/26 18:25:29;;;;;;;32.73;19.50;;;;;;;16.15;36.51;97871.84;8312896;28;20213;-67
2021/03/26 18:30:08;;;;;;;51.60;16.63;;;;;;;16.01;35.54;97867.53;8336348;28;20686;-67
2021/03/26 18:34:29;;;;;;;22.07;14.03;;;;;;;15.98;38.08;97871.19;8335389;28;20185;-68
2021/03/26 18:38:58;;;;;;;22.90;17.10;;;;;;;15.89;37.51;97866.59;8325022;28;20542;-67
2021/03/26 18:43:11;;;;;;;24.57;16.33;;;;;;;15.80;37.80;97873.28;8325280;28;20224;-67
2021/03/26 18:47:22;;;;;;;18.63;13.93;;;;;;;15.70;38.95;97872.19;8311155;28;20302;-67
2021/03/26 18:51:38;;;;;;;19.63;12.90;;;;;;;15.54;39.15;97861.09;8322573;28;20250;-67
2021/03/26 18:55:51;;;;;;;28.55;14.40;;;;;;;15.98;38.19;97870.38;8331892;28;20454;-66
2021/03/26 19:00:10;;;;;;;19.83;12.40;;;;;;;15.43;39.16;97878.28;8309691;28;20248;-66
2021/03/26 19:04:19;;;;;;;24.53;11.30;;;;;;;15.36;38.57;97874.41;8334536;28;20220;-66
2021/03/26 19:08:25;;;;;;;18.73;11.53;;;;;;;15.24;39.34;97867.38;8315121;28;20193;-65
2021/03/26 19:12:37;;;;;;;16.20;11.50;;;;;;;15.14;40.23;97863.72;8315408;28;20211;-66
2021/03/26 19:16:45;;;;;;;18.70;11.63;;;;;;;15.01;40.79;97861.06;8335570;28;20231;-68
2021/03/26 19:20:55;;;;;;;17.17;11.53;;;;;;;14.97;41.04;97859.56;8336401;28;20234;-66
2021/03/26 19:25:10;;;;;;;21.13;12.87;;;;;;;14.92;41.01;97862.47;8335378;28;20217;-66
2021/03/26 19:29:19;;;;;;;17.90;11.80;;;;;;;14.81;41.24;97868.38;8335540;28;20244;-66